Mablethorpe, United Kingdom
Current Conditions -  °F | °C
As of 4:50 PM on Sunday 21 Dec 2014 (Local Time) from EGXS Reporting Station
Overcast Overcast  
Wind Chill: 50°   Ceiling: 22000
Heat Index: 50°   Visibility: 6mi
Dew Point: 45°   Wind: 20mph
Humidity: 82%   Direction: 210°SSW
Pressure: 29.97"   Gusts: NA
Location:  53.34°N, 0.24°E
Report Text: EGXS 211650Z AUTO 21017KT 9999 // OVC220/// 10/07 Q1015
Loading
Personal Weather Stations






























Interactive Weather Map New forecast layout! Learn more

10-Day Weather Forecast

Advertisements
Track Severe Weather on mobile